createdAt,value
2022-10-17T00:00:19.469Z,90.19
2022-10-17T00:01:23.507Z,90.33
2022-10-17T00:02:26.455Z,90.70
2022-10-17T00:03:30.538Z,90.33
2022-10-17T00:05:41.508Z,90.65
2022-10-17T00:06:45.005Z,90.22
2022-10-17T00:07:49.109Z,90.35
2022-10-17T00:08:53.167Z,90.26
2022-10-17T00:09:57.308Z,90.75
2022-10-17T00:11:01.657Z,90.35
2022-10-17T00:12:06.017Z,90.18
2022-10-17T00:13:10.556Z,90.47
2022-10-17T00:14:14.516Z,90.89
2022-10-17T00:15:18.676Z,90.62
2022-10-17T00:16:26.684Z,90.56
2022-10-17T00:17:31.215Z,91.19
2022-10-17T00:18:35.339Z,91.16
2022-10-17T00:19:38.568Z,90.31
2022-10-17T00:20:42.570Z,91.00
2022-10-17T00:21:45.466Z,90.49
2022-10-17T00:22:49.421Z,91.14
2022-10-17T00:23:52.835Z,90.66
2022-10-17T00:24:57.125Z,91.07
2022-10-17T00:26:02.009Z,90.75
2022-10-17T00:27:06.197Z,90.73
2022-10-17T00:28:11.185Z,91.34
2022-10-17T00:29:15.221Z,91.20
2022-10-17T00:30:18.356Z,90.49
2022-10-17T00:31:24.217Z,90.85
2022-10-17T00:32:27.383Z,90.72
2022-10-17T00:33:32.238Z,90.45
2022-10-17T00:34:35.328Z,91.10
2022-10-17T00:35:39.348Z,90.89
2022-10-17T00:36:42.276Z,90.86
2022-10-17T00:37:46.258Z,90.96
2022-10-17T00:38:51.029Z,90.93
2022-10-17T00:39:55.526Z,91.02
2022-10-17T00:40:58.997Z,90.86
2022-10-17T00:42:02.998Z,90.12
2022-10-17T00:43:07.266Z,90.91
2022-10-17T00:44:47.701Z,90.84
2022-10-17T00:45:53.145Z,90.37
2022-10-17T00:46:56.637Z,90.75
2022-10-17T00:48:02.630Z,90.58
2022-10-17T00:49:07.528Z,90.95
2022-10-17T00:50:11.829Z,90.94
2022-10-17T00:51:15.366Z,91.00
2022-10-17T00:52:22.991Z,91.30
2022-10-17T00:53:25.960Z,91.73
2022-10-17T00:54:33.638Z,91.73
2022-10-17T00:55:39.113Z,91.41
2022-10-17T00:56:44.068Z,91.39
2022-10-17T00:57:47.129Z,91.81
2022-10-17T00:58:51.249Z,91.05
2022-10-17T00:59:56.972Z,91.14
2022-10-17T01:01:03.516Z,90.78
2022-10-17T01:02:09.337Z,91.88
2022-10-17T01:03:13.328Z,91.76
2022-10-17T01:04:16.440Z,92.87
2022-10-17T01:05:21.190Z,92.21
2022-10-17T01:06:24.168Z,92.42
2022-10-17T01:07:33.118Z,92.23
2022-10-17T01:08:39.580Z,92.28
2022-10-17T01:09:45.049Z,92.49
2022-10-17T01:10:55.710Z,92.97
2022-10-17T01:12:06.279Z,92.71
2022-10-17T01:13:14.450Z,92.05
2022-10-17T01:14:24.675Z,92.69
2022-10-17T01:15:37.658Z,92.73
2022-10-17T01:16:49.146Z,92.59
2022-10-17T01:18:01.956Z,92.39
2022-10-17T01:20:59.915Z,91.96
2022-10-17T01:22:07.668Z,91.84
2022-10-17T01:23:23.640Z,91.50
2022-10-17T01:24:49.411Z,91.68
2022-10-17T01:25:56.783Z,92.12
2022-10-17T01:27:33.849Z,91.98
2022-10-17T01:29:03.047Z,92.58
2022-10-17T01:30:35.537Z,92.38
2022-10-17T01:31:44.357Z,91.83
2022-10-17T01:32:50.776Z,92.01
2022-10-17T01:34:01.205Z,91.84
2022-10-17T01:35:09.979Z,92.14
2022-10-17T01:36:19.167Z,91.98
2022-10-17T01:37:28.768Z,92.20
2022-10-17T01:38:36.283Z,92.54
2022-10-17T01:39:45.473Z,92.42
2022-10-17T01:40:55.479Z,92.50
2022-10-17T01:42:02.594Z,91.96
2022-10-17T01:43:10.467Z,92.00
2022-10-17T01:44:16.062Z,91.74
2022-10-17T01:45:24.318Z,92.23
2022-10-17T01:46:30.368Z,92.21
2022-10-17T01:47:36.387Z,91.79
2022-10-17T01:48:43.428Z,91.71
2022-10-17T01:49:48.360Z,91.74
2022-10-17T01:50:54.267Z,91.08
2022-10-17T01:52:01.818Z,91.17
2022-10-17T01:53:09.330Z,91.40
2022-10-17T01:54:18.286Z,91.17
2022-10-17T01:55:26.200Z,91.33
2022-10-17T01:56:34.496Z,91.64
2022-10-17T01:57:41.458Z,91.38
2022-10-17T01:58:49.056Z,91.65
2022-10-17T01:59:52.898Z,91.78
2022-10-17T02:01:01.595Z,91.72
2022-10-17T02:02:08.126Z,91.27
2022-10-17T02:03:15.956Z,91.31
2022-10-17T02:04:20.099Z,91.69
2022-10-17T02:05:26.608Z,91.67
2022-10-17T02:06:29.635Z,91.20
2022-10-17T02:07:34.567Z,91.06
2022-10-17T02:08:42.438Z,90.96
2022-10-17T02:09:46.607Z,91.21
2022-10-17T02:10:53.900Z,91.49
2022-10-17T02:12:11.531Z,91.32
2022-10-17T02:13:22.256Z,91.33
2022-10-17T02:14:33.698Z,91.20
2022-10-17T02:16:01.403Z,91.43
2022-10-17T02:17:10.868Z,91.47
2022-10-17T02:18:29.779Z,91.20
2022-10-17T02:19:45.518Z,91.20
2022-10-17T02:20:54.277Z,91.08
2022-10-17T02:22:05.718Z,91.29
2022-10-17T02:23:13.150Z,91.65
2022-10-17T02:24:21.573Z,91.13
2022-10-17T02:25:34.228Z,91.43
2022-10-17T02:26:42.130Z,91.71
2022-10-17T02:27:52.078Z,91.67
2022-10-17T02:29:03.210Z,91.59
2022-10-17T02:30:11.892Z,92.35
2022-10-17T02:31:17.390Z,92.71
2022-10-17T02:32:26.633Z,92.30
2022-10-17T02:33:34.456Z,91.33
2022-10-17T02:34:40.759Z,91.71
2022-10-17T02:35:47.807Z,91.71
2022-10-17T02:36:54.166Z,92.34
2022-10-17T02:37:58.959Z,92.55
2022-10-17T02:39:03.961Z,91.44
2022-10-17T02:40:08.017Z,91.25
2022-10-17T02:41:19.025Z,91.58
2022-10-17T02:42:23.737Z,91.41
2022-10-17T02:43:27.897Z,91.47
2022-10-17T02:44:31.445Z,91.66
2022-10-17T02:45:37.336Z,91.17
2022-10-17T02:46:42.217Z,91.73
2022-10-17T02:47:52.960Z,91.44
2022-10-17T02:49:01.606Z,92.29
2022-10-17T02:50:06.678Z,92.37
2022-10-17T02:51:12.877Z,92.18
2022-10-17T02:52:20.763Z,92.04
2022-10-17T02:53:30.277Z,92.41
2022-10-17T02:54:40.399Z,91.61
2022-10-17T02:55:48.900Z,91.70
2022-10-17T02:56:57.233Z,92.25
2022-10-17T02:58:03.394Z,92.00
2022-10-17T02:59:09.524Z,91.93
2022-10-17T03:00:14.532Z,92.38
2022-10-17T03:01:19.079Z,91.94
2022-10-17T03:02:22.678Z,91.89
2022-10-17T03:03:28.343Z,91.84
2022-10-17T03:04:37.379Z,92.28
2022-10-17T03:05:41.306Z,91.96
2022-10-17T03:06:46.198Z,91.85
2022-10-17T03:07:51.120Z,91.96
2022-10-17T03:08:54.096Z,91.61
2022-10-17T03:09:58.059Z,91.87
2022-10-17T03:11:01.264Z,91.94
2022-10-17T03:12:05.965Z,91.44
2022-10-17T03:13:10.397Z,91.74
2022-10-17T03:14:17.270Z,91.68
2022-10-17T03:15:20.262Z,91.62
2022-10-17T03:16:24.249Z,91.66
2022-10-17T03:17:28.294Z,91.75
2022-10-17T03:18:31.262Z,92.17
2022-10-17T03:19:39.218Z,92.04
2022-10-17T03:20:42.389Z,92.33
2022-10-17T03:21:46.348Z,92.55
2022-10-17T03:22:49.328Z,92.17
2022-10-17T03:23:53.416Z,92.14
2022-10-17T03:24:58.378Z,91.99
2022-10-17T03:26:05.508Z,92.44
2022-10-17T03:38:25.228Z,91.61
2022-10-17T03:39:29.700Z,90.85
2022-10-17T03:40:32.641Z,90.65
2022-10-17T03:41:36.800Z,91.10
2022-10-17T03:42:39.787Z,91.26
2022-10-17T03:43:43.861Z,90.93
2022-10-17T03:44:46.829Z,91.62
2022-10-17T03:45:50.781Z,91.80
2022-10-17T03:46:53.690Z,91.87
2022-10-17T03:47:57.746Z,92.06
2022-10-17T03:49:01.359Z,92.27
2022-10-17T03:50:06.510Z,91.45
2022-10-17T03:51:12.499Z,91.97
2022-10-17T03:52:21.850Z,91.59
2022-10-17T03:53:26.707Z,91.52
2022-10-17T03:54:31.360Z,91.52
2022-10-17T03:55:34.318Z,91.42
2022-10-17T03:56:38.819Z,90.86
2022-10-17T03:57:46.190Z,91.25
2022-10-17T03:58:51.955Z,91.65
2022-10-17T03:59:54.868Z,91.63
2022-10-17T04:00:59.209Z,91.69
2022-10-17T04:02:02.248Z,91.27
2022-10-17T04:03:06.230Z,91.56
2022-10-17T04:04:09.558Z,91.37
2022-10-17T04:05:14.407Z,91.88
2022-10-17T04:06:17.491Z,91.92
2022-10-17T04:07:21.551Z,91.37
2022-10-17T04:08:26.920Z,91.56
2022-10-17T04:09:42.438Z,91.06
2022-10-17T04:10:49.261Z,91.77
2022-10-17T04:11:53.328Z,91.29
2022-10-17T04:12:57.686Z,91.85
2022-10-17T04:14:01.790Z,91.62
2022-10-17T04:15:07.251Z,91.31
2022-10-17T04:16:16.718Z,91.33
2022-10-17T04:17:29.186Z,91.45
2022-10-17T04:18:32.328Z,91.83
2022-10-17T04:19:36.404Z,91.36
2022-10-17T04:20:39.275Z,91.35
2022-10-17T04:21:43.488Z,91.74
2022-10-17T04:22:46.500Z,91.33
2022-10-17T04:23:54.736Z,91.70
2022-10-17T04:25:10.307Z,91.61
2022-10-17T04:26:17.302Z,91.94
2022-10-17T04:27:20.301Z,92.14
2022-10-17T04:28:25.191Z,92.24
2022-10-17T04:29:28.633Z,92.36
2022-10-17T04:30:43.672Z,92.11
2022-10-17T04:31:50.028Z,92.32
2022-10-17T04:32:58.557Z,92.33
2022-10-17T04:34:03.488Z,92.16
2022-10-17T04:35:08.249Z,92.03
2022-10-17T04:36:13.081Z,92.71
2022-10-17T04:37:17.815Z,92.80
2022-10-17T04:38:27.607Z,92.28
2022-10-17T04:39:34.131Z,92.45
2022-10-17T04:40:37.303Z,91.93
2022-10-17T04:41:41.911Z,91.85
2022-10-17T04:42:45.407Z,92.43
2022-10-17T04:43:52.510Z,91.91
2022-10-17T04:44:56.867Z,91.95
2022-10-17T04:46:04.819Z,91.88
2022-10-17T04:47:10.168Z,92.33
2022-10-17T04:48:14.700Z,92.09
2022-10-17T04:49:19.648Z,92.28
2022-10-17T04:50:25.288Z,92.74
2022-10-17T04:51:49.210Z,93.15
2022-10-17T04:53:01.853Z,93.04
2022-10-17T04:54:06.017Z,93.44
2022-10-17T04:55:11.440Z,93.25
2022-10-17T04:56:17.333Z,93.24
2022-10-17T04:57:20.810Z,93.27
2022-10-17T04:58:42.042Z,93.09
2022-10-17T04:59:46.908Z,93.02
2022-10-17T05:00:57.183Z,93.13
2022-10-17T05:02:06.108Z,93.04
2022-10-17T05:03:10.380Z,92.91
2022-10-17T05:04:14.360Z,93.07
2022-10-17T05:05:17.309Z,92.86
2022-10-17T05:06:25.509Z,93.02
2022-10-17T05:07:46.368Z,92.67
2022-10-17T05:08:55.147Z,92.62
2022-10-17T05:09:58.977Z,93.17
2022-10-17T05:11:05.999Z,93.22
2022-10-17T05:12:10.402Z,92.98
2022-10-17T05:13:17.736Z,93.08
2022-10-17T05:14:20.899Z,92.97
2022-10-17T05:15:25.549Z,93.33
2022-10-17T05:16:32.240Z,93.69
2022-10-17T05:17:35.216Z,93.39
2022-10-17T05:18:39.380Z,93.64
2022-10-17T05:19:42.289Z,93.41
2022-10-17T05:20:46.470Z,93.43
2022-10-17T05:21:49.490Z,93.75
2022-10-17T05:22:53.470Z,93.21
2022-10-17T05:23:57.387Z,93.60
2022-10-17T05:25:01.643Z,93.45
2022-10-17T05:26:06.333Z,93.37
2022-10-17T05:27:10.320Z,93.31
2022-10-17T05:28:13.407Z,93.41
2022-10-17T05:29:19.572Z,93.63
2022-10-17T05:30:27.789Z,93.34
2022-10-17T05:31:45.117Z,93.50
2022-10-17T05:32:48.798Z,93.85
2022-10-17T05:33:52.770Z,94.35
2022-10-17T05:34:55.807Z,94.05
2022-10-17T05:36:02.076Z,94.30
2022-10-17T05:37:04.997Z,94.64
2022-10-17T05:38:09.876Z,94.94
2022-10-17T05:39:15.090Z,94.57
2022-10-17T05:40:19.590Z,95.04
2022-10-17T05:41:24.054Z,95.57
2022-10-17T05:42:28.641Z,95.38
2022-10-17T05:43:34.877Z,95.09
2022-10-17T05:44:39.507Z,95.42
2022-10-17T05:45:44.654Z,94.69
2022-10-17T05:46:53.797Z,94.45
2022-10-17T05:47:58.940Z,94.54
2022-10-17T05:49:05.299Z,94.93
2022-10-17T05:50:11.850Z,95.06
2022-10-17T05:51:36.113Z,95.12
2022-10-17T05:52:42.931Z,95.57
2022-10-17T05:53:52.608Z,96.15
2022-10-17T05:55:00.161Z,96.70
2022-10-17T05:56:06.702Z,96.56
2022-10-17T05:57:11.200Z,96.62
2022-10-17T05:58:21.969Z,96.75
2022-10-17T05:59:29.062Z,96.12
2022-10-17T06:00:38.951Z,96.30
2022-10-17T06:01:42.026Z,96.38
2022-10-17T06:02:47.224Z,96.88
2022-10-17T06:03:51.759Z,97.11
2022-10-17T06:04:55.806Z,96.85
2022-10-17T06:06:05.339Z,96.91
2022-10-17T06:07:08.282Z,96.78
2022-10-17T06:08:12.421Z,96.67
2022-10-17T06:09:19.016Z,97.22
2022-10-17T06:10:26.320Z,97.45
2022-10-17T06:11:30.218Z,97.62
2022-10-17T06:12:35.700Z,97.32
2022-10-17T06:13:38.848Z,97.30
2022-10-17T06:14:49.007Z,97.09
2022-10-17T06:15:52.103Z,97.67
2022-10-17T06:16:56.104Z,97.33
2022-10-17T06:17:58.955Z,97.34
2022-10-17T06:19:03.117Z,97.81
2022-10-17T06:20:07.267Z,97.99
2022-10-17T06:21:13.270Z,97.93
2022-10-17T06:22:20.641Z,97.86
2022-10-17T06:23:24.687Z,97.68
2022-10-17T06:24:40.941Z,97.47
2022-10-17T06:25:44.138Z,97.23
2022-10-17T06:26:50.066Z,97.90
2022-10-17T06:27:57.208Z,98.30
2022-10-17T06:29:00.250Z,97.42
2022-10-17T06:30:09.879Z,97.50
2022-10-17T06:31:14.684Z,97.21
2022-10-17T06:32:18.807Z,97.16
2022-10-17T06:33:23.643Z,96.70
2022-10-17T06:34:27.820Z,97.58
2022-10-17T06:35:30.810Z,97.11
2022-10-17T06:36:35.059Z,96.86
2022-10-17T06:37:38.215Z,96.70
2022-10-17T06:38:45.641Z,96.56
2022-10-17T06:39:57.521Z,96.92
2022-10-17T06:41:08.708Z,96.56
2022-10-17T06:42:11.719Z,96.54
2022-10-17T06:43:36.018Z,95.61
2022-10-17T06:44:59.931Z,95.41
2022-10-17T06:46:19.491Z,95.34
2022-10-17T06:47:51.859Z,95.04
2022-10-17T06:49:25.323Z,94.31
2022-10-17T06:50:35.690Z,94.63
2022-10-17T06:51:48.058Z,94.05
2022-10-17T06:52:55.205Z,93.90
2022-10-17T06:54:22.460Z,92.61
2022-10-17T06:55:45.539Z,92.14
2022-10-17T06:56:58.552Z,92.11
2022-10-17T06:58:17.429Z,92.10
2022-10-17T06:59:35.059Z,91.86
2022-10-17T07:00:46.181Z,91.70
2022-10-17T07:01:50.338Z,91.18
2022-10-17T07:02:53.531Z,91.37
2022-10-17T07:03:58.208Z,91.08
2022-10-17T07:05:01.289Z,90.49
2022-10-17T07:06:06.040Z,89.70
2022-10-17T07:07:20.123Z,89.33
2022-10-17T07:08:23.198Z,88.42
2022-10-17T07:09:27.968Z,88.10
2022-10-17T07:10:38.441Z,87.64
2022-10-17T07:11:44.318Z,87.27
2022-10-17T07:12:47.310Z,86.45
2022-10-17T07:13:51.258Z,86.30
2022-10-17T07:14:56.669Z,85.60
2022-10-17T07:16:01.962Z,85.54
2022-10-17T07:17:08.389Z,85.17
2022-10-17T07:18:11.585Z,85.02
2022-10-17T07:19:16.291Z,84.96
2022-10-17T07:20:19.217Z,84.82
2022-10-17T07:21:23.327Z,84.89
2022-10-17T07:22:26.407Z,84.83
2022-10-17T07:23:36.767Z,85.19
2022-10-17T07:24:40.906Z,85.24
2022-10-17T07:25:51.972Z,85.53
2022-10-17T07:26:56.320Z,85.70
2022-10-17T07:27:59.397Z,85.81
2022-10-17T07:29:03.577Z,85.63
2022-10-17T07:30:22.262Z,85.57
2022-10-17T07:31:52.367Z,85.53
2022-10-17T07:32:55.567Z,85.72
2022-10-17T07:34:01.241Z,85.59
2022-10-17T07:35:06.270Z,85.96
2022-10-17T07:36:09.586Z,85.67
2022-10-17T07:37:14.049Z,85.55
2022-10-17T07:38:24.002Z,85.06
2022-10-17T07:39:27.027Z,85.22
2022-10-17T07:40:31.171Z,85.49
2022-10-17T07:41:34.138Z,85.17
2022-10-17T07:43:43.590Z,85.50
2022-10-17T07:44:48.139Z,85.37
2022-10-17T07:45:54.132Z,85.31
2022-10-17T07:46:59.296Z,85.25
2022-10-17T07:48:02.550Z,85.09
2022-10-17T07:49:07.793Z,85.08
2022-10-17T07:50:11.149Z,84.86
2022-10-17T07:51:15.404Z,84.90
2022-10-17T07:52:19.470Z,84.73
2022-10-17T07:53:22.642Z,84.71
2022-10-17T07:54:26.943Z,84.59
2022-10-17T07:55:30.320Z,84.58
2022-10-17T07:56:36.237Z,83.97
2022-10-17T07:57:40.489Z,84.40
2022-10-17T07:58:44.692Z,84.19
2022-10-17T07:59:48.297Z,83.92
2022-10-17T08:00:53.802Z,83.73
2022-10-17T08:01:58.059Z,83.57
2022-10-17T08:03:00.969Z,83.37
2022-10-17T08:04:04.896Z,83.63
2022-10-17T08:05:08.792Z,83.65
2022-10-17T08:06:22.368Z,83.72
2022-10-17T08:07:33.647Z,83.77
2022-10-17T08:08:37.397Z,83.55
2022-10-17T08:09:41.348Z,83.50
2022-10-17T08:10:44.338Z,83.30
2022-10-17T08:11:49.269Z,83.27
2022-10-17T08:12:52.141Z,83.11
2022-10-17T08:13:56.195Z,82.69
2022-10-17T08:14:59.080Z,81.91
2022-10-17T08:16:05.759Z,82.19
2022-10-17T08:17:08.782Z,81.91
2022-10-17T08:18:13.994Z,81.77
2022-10-17T08:19:16.869Z,81.74
2022-10-17T08:20:20.940Z,81.59
2022-10-17T08:21:24.916Z,81.73
2022-10-17T08:22:29.149Z,81.48
2022-10-17T08:23:33.384Z,81.78
2022-10-17T08:24:37.421Z,81.55
2022-10-17T08:25:40.416Z,81.60
2022-10-17T08:26:46.181Z,81.44
2022-10-17T08:27:51.509Z,81.12
2022-10-17T08:28:55.660Z,81.38
2022-10-17T08:29:58.690Z,81.31
2022-10-17T08:31:09.139Z,80.76
2022-10-17T08:32:13.107Z,80.21
2022-10-17T08:33:16.140Z,80.23
2022-10-17T08:34:20.447Z,80.05
2022-10-17T08:35:24.051Z,80.06
2022-10-17T08:36:29.367Z,79.83
2022-10-17T08:37:32.829Z,79.68
2022-10-17T08:38:41.432Z,79.95
2022-10-17T08:39:46.279Z,79.80
2022-10-17T08:40:50.843Z,80.11
2022-10-17T08:42:05.338Z,79.88
2022-10-17T08:43:18.920Z,79.47
2022-10-17T08:44:35.242Z,79.61
2022-10-17T08:45:42.190Z,79.42
2022-10-17T08:46:49.828Z,79.48
2022-10-17T08:47:55.440Z,79.56
2022-10-17T08:49:02.200Z,79.42
2022-10-17T08:50:08.685Z,78.84
2022-10-17T08:51:16.759Z,78.94
2022-10-17T08:52:28.133Z,78.51
2022-10-17T08:53:36.479Z,78.31
2022-10-17T08:54:43.328Z,78.35
2022-10-17T08:55:49.067Z,77.93
2022-10-17T08:56:55.157Z,78.18
2022-10-17T08:57:59.404Z,77.82
2022-10-17T08:59:04.336Z,77.67
2022-10-17T09:00:15.870Z,77.63
2022-10-17T09:01:34.970Z,77.23
2022-10-17T09:02:51.866Z,77.36
2022-10-17T09:04:11.623Z,77.57
2022-10-17T09:05:43.043Z,77.24
2022-10-17T09:06:51.407Z,77.27
2022-10-17T09:08:01.402Z,76.95
2022-10-17T09:09:16.914Z,76.93
2022-10-17T09:10:27.396Z,76.50
2022-10-17T09:11:42.111Z,76.34
2022-10-17T09:12:50.987Z,76.33
2022-10-17T09:14:03.790Z,75.80
2022-10-17T09:15:31.185Z,74.85
2022-10-17T09:16:46.350Z,75.14
2022-10-17T09:17:53.523Z,74.66
2022-10-17T09:19:01.857Z,74.17
2022-10-17T09:20:11.537Z,74.02
2022-10-17T09:21:20.441Z,73.63
2022-10-17T09:22:26.660Z,73.48
2022-10-17T09:23:33.425Z,73.04
2022-10-17T09:24:41.128Z,72.25
2022-10-17T09:25:47.278Z,72.58
2022-10-17T09:26:52.722Z,72.13
2022-10-17T09:28:03.741Z,71.81
2022-10-17T09:29:16.346Z,71.65
2022-10-17T09:30:46.382Z,71.26
2022-10-17T09:31:54.288Z,71.98
2022-10-17T09:32:59.952Z,71.37
2022-10-17T09:34:04.751Z,71.44
2022-10-17T09:35:12.867Z,70.88
2022-10-17T09:36:19.045Z,70.61
2022-10-17T09:37:31.590Z,70.43
2022-10-17T09:38:40.905Z,70.44
2022-10-17T09:39:45.559Z,70.20
2022-10-17T09:40:56.890Z,70.19
2022-10-17T09:42:02.303Z,70.03
2022-10-17T09:43:08.149Z,69.86
2022-10-17T09:44:20.900Z,69.16
2022-10-17T09:45:26.246Z,69.06
2022-10-17T09:46:35.870Z,68.48
2022-10-17T09:47:42.670Z,68.07
2022-10-17T09:48:52.568Z,68.24
2022-10-17T09:49:57.795Z,68.03
2022-10-17T09:51:15.145Z,67.66
2022-10-17T09:52:30.567Z,67.47
2022-10-17T09:53:38.408Z,67.47
2022-10-17T09:54:44.977Z,67.39
2022-10-17T09:55:51.165Z,67.28
2022-10-17T09:57:02.995Z,66.39
2022-10-17T09:58:08.547Z,66.14
2022-10-17T09:59:33.820Z,65.83
2022-10-17T10:00:39.761Z,66.53
2022-10-17T10:01:42.778Z,66.01
2022-10-17T10:02:46.731Z,65.91
2022-10-17T10:04:10.778Z,65.30
2022-10-17T10:05:16.717Z,66.07
2022-10-17T10:06:22.015Z,65.74
2022-10-17T10:07:29.114Z,65.60
2022-10-17T10:08:35.749Z,65.29
2022-10-17T10:09:40.254Z,65.22
2022-10-17T10:10:44.900Z,65.16
2022-10-17T10:11:50.235Z,64.95
2022-10-17T10:13:06.301Z,64.51
2022-10-17T10:14:14.211Z,64.76
2022-10-17T10:15:34.012Z,64.13
2022-10-17T10:16:43.488Z,64.05
2022-10-17T10:17:47.449Z,64.07
2022-10-17T10:18:52.213Z,64.17
2022-10-17T10:19:56.206Z,64.32
2022-10-17T10:21:06.299Z,63.91
2022-10-17T10:22:18.290Z,63.20
2022-10-17T10:23:22.428Z,63.55
2022-10-17T10:24:30.836Z,63.50
2022-10-17T10:25:35.592Z,63.63
2022-10-17T10:26:42.036Z,63.57
2022-10-17T10:27:45.781Z,63.43
2022-10-17T10:28:57.933Z,62.82
2022-10-17T10:30:02.098Z,62.61
2022-10-17T10:31:07.208Z,62.48
2022-10-17T10:32:20.361Z,62.50
2022-10-17T10:33:26.046Z,62.48
2022-10-17T10:34:32.928Z,62.35
2022-10-17T10:35:36.944Z,62.04
2022-10-17T10:36:49.853Z,61.60
2022-10-17T10:37:55.934Z,61.53
2022-10-17T10:39:02.449Z,61.14
2022-10-17T10:40:18.281Z,61.09
2022-10-17T10:41:21.832Z,61.66
2022-10-17T10:42:28.161Z,61.85
2022-10-17T10:43:35.298Z,61.72
2022-10-17T10:44:42.290Z,61.48
2022-10-17T10:45:49.136Z,61.05
2022-10-17T10:47:11.337Z,60.19
2022-10-17T10:48:22.082Z,60.67
2022-10-17T10:49:31.719Z,60.29
2022-10-17T10:50:44.385Z,60.42
2022-10-17T10:51:48.700Z,60.32
2022-10-17T10:52:58.176Z,59.99
2022-10-17T10:54:06.812Z,60.57
2022-10-17T10:55:21.644Z,58.97
2022-10-17T10:56:29.921Z,59.80
2022-10-17T10:57:35.979Z,59.24
2022-10-17T10:58:47.800Z,59.58
2022-10-17T10:59:58.559Z,59.24
2022-10-17T11:01:06.588Z,58.74
2022-10-17T11:02:14.680Z,58.79
2022-10-17T11:03:23.248Z,58.77
2022-10-17T11:04:31.068Z,58.69
2022-10-17T11:05:42.741Z,58.83
2022-10-17T11:06:47.137Z,58.56
2022-10-17T11:07:56.250Z,58.29
2022-10-17T11:09:11.136Z,57.74
2022-10-17T11:10:17.608Z,58.80
2022-10-17T11:11:27.387Z,58.72
2022-10-17T11:12:35.028Z,58.27
2022-10-17T11:13:42.649Z,58.27
2022-10-17T11:14:49.021Z,58.02
2022-10-17T11:15:55.164Z,58.65
2022-10-17T11:17:07.550Z,58.15
2022-10-17T11:18:15.163Z,57.81
2022-10-17T11:19:26.335Z,57.61
2022-10-17T11:20:36.158Z,57.62
2022-10-17T11:21:45.888Z,57.56
2022-10-17T11:22:51.106Z,57.51
2022-10-17T11:24:00.179Z,57.23
2022-10-17T11:25:06.520Z,57.10
2022-10-17T11:26:14.816Z,57.36
2022-10-17T11:27:17.863Z,57.55
2022-10-17T11:28:23.173Z,57.36
2022-10-17T11:29:31.250Z,57.11
2022-10-17T11:31:54.322Z,57.22
2022-10-17T11:33:01.655Z,57.34
2022-10-17T11:34:07.598Z,56.96
2022-10-17T11:35:26.155Z,56.37
2022-10-17T11:36:32.117Z,56.92
2022-10-17T11:37:41.039Z,56.93
2022-10-17T11:38:49.729Z,57.20
2022-10-17T11:39:56.702Z,56.90
2022-10-17T11:41:00.507Z,56.50
2022-10-17T11:42:08.407Z,56.70
2022-10-17T11:43:15.398Z,56.64
2022-10-17T11:44:23.349Z,56.78
2022-10-17T11:45:29.456Z,56.95
2022-10-17T11:46:37.059Z,55.93
2022-10-17T11:47:45.382Z,55.74
2022-10-17T11:48:59.697Z,55.75
2022-10-17T11:53:07.938Z,55.31
2022-10-17T11:54:15.509Z,55.28
2022-10-17T11:55:22.948Z,55.57
2022-10-17T11:56:36.165Z,54.87
2022-10-17T11:58:00.258Z,54.11
2022-10-17T11:59:18.495Z,55.15
2022-10-17T12:00:28.721Z,54.94
2022-10-17T12:01:39.097Z,55.05
2022-10-17T12:02:48.130Z,55.30
2022-10-17T12:04:06.817Z,54.56
2022-10-17T12:05:20.199Z,55.51
2022-10-17T12:06:39.120Z,54.77
2022-10-17T12:07:48.623Z,55.58
2022-10-17T12:08:58.446Z,55.28
2022-10-17T12:10:09.001Z,55.00
2022-10-17T12:11:16.346Z,55.01
2022-10-17T12:12:28.610Z,54.25
2022-10-17T12:13:55.364Z,54.23
2022-10-17T12:15:29.560Z,53.71
2022-10-17T12:16:43.613Z,54.60
2022-10-17T12:17:48.070Z,54.81
2022-10-17T12:19:12.737Z,54.57
2022-10-17T12:20:29.132Z,53.82
2022-10-17T12:21:55.654Z,53.29
2022-10-17T12:23:04.754Z,54.27
2022-10-17T12:24:28.897Z,53.89
2022-10-17T12:25:34.423Z,54.56
2022-10-17T12:26:37.359Z,53.70
2022-10-17T12:27:43.958Z,53.79
2022-10-17T12:28:48.562Z,53.70
2022-10-17T12:29:59.647Z,53.54
2022-10-17T12:31:07.358Z,53.67
2022-10-17T12:32:13.325Z,53.55
2022-10-17T12:33:22.647Z,53.20
2022-10-17T12:34:25.669Z,52.91
2022-10-17T12:35:30.770Z,53.06
2022-10-17T12:36:38.468Z,53.20
2022-10-17T12:38:04.618Z,52.63
2022-10-17T12:39:41.570Z,52.15
2022-10-17T12:41:11.547Z,52.14
2022-10-17T12:42:30.539Z,52.38
2022-10-17T12:44:55.396Z,53.12
2022-10-17T12:45:59.095Z,52.78
2022-10-17T12:47:31.029Z,50.77
2022-10-17T12:49:03.016Z,49.46
2022-10-17T12:50:52.960Z,48.55
2022-10-17T12:52:24.085Z,49.49
2022-10-17T12:53:35.851Z,49.97
2022-10-17T12:54:47.653Z,49.87
2022-10-17T12:56:03.948Z,50.42
2022-10-17T12:57:14.685Z,49.70
2022-10-17T12:58:18.687Z,50.01
2022-10-17T12:59:25.497Z,49.68
2022-10-17T13:00:35.303Z,49.17
2022-10-17T13:01:39.639Z,49.31
2022-10-17T13:02:43.941Z,49.15
2022-10-17T13:03:48.519Z,49.03
2022-10-17T13:04:55.109Z,48.94
2022-10-17T13:06:02.084Z,48.91
2022-10-17T13:07:05.053Z,48.29
2022-10-17T13:08:10.599Z,48.59
2022-10-17T13:09:22.377Z,48.27
2022-10-17T13:10:28.419Z,48.60
2022-10-17T13:11:34.099Z,48.27
2022-10-17T13:12:41.300Z,47.83
2022-10-17T13:13:47.954Z,47.72
2022-10-17T13:14:52.058Z,47.22
2022-10-17T13:15:56.627Z,46.97
2022-10-17T13:17:00.518Z,47.07
2022-10-17T13:18:04.476Z,46.42
2022-10-17T13:19:14.788Z,46.32
2022-10-17T13:20:27.523Z,46.46
2022-10-17T13:21:34.467Z,46.48
2022-10-17T13:22:45.419Z,46.23
2022-10-17T13:23:53.219Z,46.46
2022-10-17T13:25:08.738Z,46.21
2022-10-17T13:26:20.298Z,46.64
2022-10-17T13:27:26.871Z,47.01
2022-10-17T13:28:33.894Z,46.93
2022-10-17T13:29:45.846Z,47.09
2022-10-17T13:30:49.986Z,46.90
2022-10-17T13:31:54.793Z,46.91
2022-10-17T13:32:59.030Z,46.76
2022-10-17T13:34:05.011Z,46.56
2022-10-17T13:35:10.562Z,46.58
2022-10-17T13:36:19.027Z,46.51
2022-10-17T13:37:23.094Z,46.31
2022-10-17T13:38:30.472Z,46.69
2022-10-17T13:39:55.305Z,46.55
2022-10-17T13:41:22.965Z,46.58
2022-10-17T13:42:27.838Z,46.88
2022-10-17T13:43:34.290Z,46.64
2022-10-17T13:44:40.462Z,46.81
2022-10-17T13:45:50.227Z,46.87
2022-10-17T13:46:53.843Z,46.85
2022-10-17T13:47:58.410Z,47.19
2022-10-17T13:49:10.909Z,47.38
2022-10-17T13:50:42.953Z,47.42
2022-10-17T13:51:50.408Z,47.94
2022-10-17T13:53:17.561Z,47.77
2022-10-17T13:54:35.115Z,48.32
2022-10-17T13:55:38.069Z,48.50
2022-10-17T13:56:42.090Z,48.45
2022-10-17T13:57:45.018Z,48.18
2022-10-17T13:58:51.716Z,48.41
2022-10-17T13:59:57.647Z,48.60
2022-10-17T14:01:01.812Z,48.59
2022-10-17T14:02:06.098Z,49.25
2022-10-17T14:03:10.007Z,49.72
2022-10-17T14:04:19.803Z,50.00
2022-10-17T14:05:24.441Z,49.68
2022-10-17T14:06:28.793Z,49.60
2022-10-17T14:07:52.032Z,49.57
2022-10-17T14:09:02.557Z,49.60
2022-10-17T14:10:07.326Z,49.74
2022-10-17T14:11:24.138Z,49.86
2022-10-17T14:12:27.267Z,50.31
2022-10-17T14:13:34.263Z,49.69
2022-10-17T14:15:05.252Z,49.42
2022-10-17T14:16:05.907Z,49.49
2022-10-17T14:17:14.320Z,48.99
2022-10-17T14:18:20.751Z,48.95
2022-10-17T14:19:27.380Z,49.02
2022-10-17T14:21:55.443Z,49.55
2022-10-17T14:23:21.496Z,49.47
2022-10-17T14:24:30.147Z,49.30
2022-10-17T14:25:35.777Z,49.22
2022-10-17T14:26:48.660Z,48.76
2022-10-17T14:28:02.770Z,48.58
2022-10-17T14:29:08.946Z,48.78
2022-10-17T14:30:55.632Z,48.37
2022-10-17T14:32:03.411Z,48.36
2022-10-17T14:33:08.951Z,47.94
2022-10-17T14:34:22.479Z,47.64
2022-10-17T14:35:41.999Z,47.43
2022-10-17T14:36:54.559Z,47.03
2022-10-17T14:38:00.704Z,47.07
2022-10-17T14:39:05.531Z,47.29
2022-10-17T14:40:16.060Z,47.38
2022-10-17T14:41:41.762Z,47.49
2022-10-17T14:42:46.950Z,47.92
2022-10-17T14:43:56.949Z,48.37
2022-10-17T14:45:06.971Z,48.82
2022-10-17T14:46:15.222Z,49.11
2022-10-17T14:47:42.727Z,49.37
2022-10-17T14:48:44.300Z,49.96
2022-10-17T14:49:51.309Z,50.32
2022-10-17T14:51:08.220Z,50.41
2022-10-17T14:52:27.548Z,50.23
2022-10-17T14:53:31.589Z,50.09
2022-10-17T14:54:36.126Z,50.09
2022-10-17T14:55:41.585Z,50.13
2022-10-17T14:56:50.452Z,50.05
2022-10-17T14:57:54.403Z,50.25
2022-10-17T14:58:57.428Z,50.46
2022-10-17T15:00:01.525Z,50.50